createdAt,value
2022-10-17T00:01:25.005Z,14.00
2022-10-17T00:03:56.968Z,13.90
2022-10-17T00:06:29.002Z,13.90
2022-10-17T00:09:00.998Z,13.90
2022-10-17T00:11:33.845Z,13.90
2022-10-17T00:14:06.671Z,13.90
2022-10-17T00:16:39.350Z,13.80
2022-10-17T00:19:12.593Z,13.80
2022-10-17T00:21:44.699Z,13.80
2022-10-17T00:24:16.883Z,13.80
2022-10-17T00:26:48.913Z,13.80
2022-10-17T00:29:21.077Z,13.80
2022-10-17T00:31:57.271Z,13.80
2022-10-17T00:34:31.438Z,13.90
2022-10-17T00:37:03.679Z,13.90
2022-10-17T00:39:36.187Z,13.80
2022-10-17T00:42:13.650Z,13.80
2022-10-17T00:44:48.174Z,13.80
2022-10-17T00:47:31.401Z,13.80
2022-10-17T00:50:06.822Z,13.80
2022-10-17T00:52:40.627Z,13.80
2022-10-17T00:55:19.942Z,13.80
2022-10-17T00:57:58.003Z,13.80
2022-10-17T01:00:31.948Z,13.70
2022-10-17T01:03:04.876Z,13.70
2022-10-17T01:05:38.189Z,13.70
2022-10-17T01:08:13.849Z,13.60
2022-10-17T01:10:56.220Z,13.60
2022-10-17T01:14:03.172Z,13.60
2022-10-17T01:16:59.151Z,13.60
2022-10-17T01:20:05.890Z,13.60
2022-10-17T01:23:16.156Z,13.60
2022-10-17T01:26:36.353Z,13.60
2022-10-17T01:29:28.037Z,13.50
2022-10-17T01:32:26.314Z,13.60
2022-10-17T01:35:42.655Z,13.50
2022-10-17T01:38:42.033Z,13.50
2022-10-17T01:41:26.000Z,13.60
2022-10-17T01:44:29.521Z,13.60
2022-10-17T01:47:20.714Z,13.60
2022-10-17T01:50:32.585Z,13.50
2022-10-17T01:53:20.858Z,13.60
2022-10-17T01:56:02.624Z,13.50
2022-10-17T01:58:50.855Z,13.50
2022-10-17T02:01:30.937Z,13.50
2022-10-17T02:04:07.079Z,13.50
2022-10-17T02:06:39.719Z,13.40
2022-10-17T02:09:26.928Z,13.40
2022-10-17T02:12:18.773Z,13.40
2022-10-17T02:15:32.772Z,13.30
2022-10-17T02:18:53.504Z,13.30
2022-10-17T02:22:06.681Z,13.20
2022-10-17T02:25:09.949Z,13.20
2022-10-17T02:28:06.545Z,13.20
2022-10-17T02:30:59.687Z,13.20
2022-10-17T02:33:42.189Z,13.30
2022-10-17T02:36:41.445Z,13.40
2022-10-17T02:39:22.108Z,13.30
2022-10-17T02:41:57.563Z,13.30
2022-10-17T02:44:33.642Z,13.30
2022-10-17T02:47:30.763Z,13.20
2022-10-17T02:50:08.713Z,13.20
2022-10-17T02:52:50.925Z,13.10
2022-10-17T02:55:33.473Z,13.10
2022-10-17T02:58:20.849Z,13.00
2022-10-17T03:00:59.847Z,13.00
2022-10-17T03:03:32.777Z,12.90
2022-10-17T03:06:04.847Z,12.90
2022-10-17T03:11:13.823Z,12.90
2022-10-17T03:13:46.257Z,12.80
2022-10-17T03:16:18.277Z,12.80
2022-10-17T03:18:50.370Z,12.80
2022-10-17T03:21:22.513Z,12.80
2022-10-17T03:23:54.648Z,12.70
2022-10-17T03:26:26.716Z,12.70
2022-10-17T03:29:00.501Z,12.70
2022-10-17T03:31:32.842Z,12.60
2022-10-17T03:34:06.286Z,12.60
2022-10-17T03:36:38.219Z,12.60
2022-10-17T03:39:10.547Z,12.60
2022-10-17T03:41:45.012Z,12.50
2022-10-17T03:44:17.459Z,12.50
2022-10-17T03:46:52.675Z,12.50
2022-10-17T03:49:24.870Z,12.40
2022-10-17T03:51:56.908Z,12.40
2022-10-17T03:54:29.964Z,12.40
2022-10-17T03:57:02.258Z,12.40
2022-10-17T03:59:34.479Z,12.30
2022-10-17T04:02:06.439Z,12.30
2022-10-17T04:04:38.843Z,12.30
2022-10-17T04:07:11.329Z,12.30
2022-10-17T04:09:43.390Z,12.30
2022-10-17T04:12:15.535Z,12.30
2022-10-17T04:14:47.646Z,12.30
2022-10-17T04:17:19.686Z,12.30
2022-10-17T04:19:51.930Z,12.40
2022-10-17T04:22:23.891Z,12.40
2022-10-17T04:24:55.919Z,12.40
2022-10-17T04:27:27.975Z,12.40
2022-10-17T04:30:00.005Z,12.40
2022-10-17T04:32:33.209Z,12.40
2022-10-17T04:35:08.715Z,12.50
2022-10-17T04:37:40.779Z,12.50
2022-10-17T04:40:13.137Z,12.50
2022-10-17T04:42:45.453Z,12.40
2022-10-17T04:45:18.087Z,12.40
2022-10-17T04:47:50.159Z,12.40
2022-10-17T04:50:22.210Z,12.40
2022-10-17T04:52:54.140Z,12.40
2022-10-17T04:55:26.269Z,12.40
2022-10-17T04:57:59.731Z,12.30
2022-10-17T05:00:31.740Z,12.30
2022-10-17T05:03:03.874Z,12.30
2022-10-17T05:05:40.403Z,12.30
2022-10-17T05:08:12.991Z,12.30
2022-10-17T05:10:46.553Z,12.30
2022-10-17T05:13:20.057Z,12.20
2022-10-17T05:15:52.289Z,12.30
2022-10-17T05:18:24.532Z,12.30
2022-10-17T05:20:57.238Z,12.30
2022-10-17T05:23:30.776Z,12.30
2022-10-17T05:26:36.960Z,12.30
2022-10-17T05:29:09.107Z,12.30
2022-10-17T05:31:41.289Z,12.30
2022-10-17T05:34:14.049Z,12.30
2022-10-17T05:36:46.093Z,12.30
2022-10-17T05:39:19.705Z,12.30
2022-10-17T05:41:53.514Z,12.30
2022-10-17T05:44:25.689Z,12.30
2022-10-17T05:46:57.837Z,12.30
2022-10-17T05:49:44.027Z,12.30
2022-10-17T05:52:20.586Z,12.30
2022-10-17T05:54:52.727Z,12.30
2022-10-17T05:57:27.950Z,12.40
2022-10-17T06:00:00.853Z,12.40
2022-10-17T06:02:33.615Z,12.50
2022-10-17T06:05:06.959Z,12.50
2022-10-17T06:07:39.362Z,12.50
2022-10-17T06:10:15.045Z,12.50
2022-10-17T06:13:07.000Z,12.60
2022-10-17T06:15:39.199Z,12.60
2022-10-17T06:18:11.786Z,12.60
2022-10-17T06:20:46.050Z,12.70
2022-10-17T06:23:18.903Z,12.70
2022-10-17T06:25:51.166Z,12.80
2022-10-17T06:28:23.514Z,12.80
2022-10-17T06:30:57.184Z,12.90
2022-10-17T06:33:29.389Z,13.10
2022-10-17T06:36:01.655Z,13.30
2022-10-17T06:38:35.283Z,13.50
2022-10-17T06:41:13.513Z,13.90
2022-10-17T06:43:47.629Z,14.20
2022-10-17T06:46:21.568Z,14.50
2022-10-17T06:48:56.607Z,14.90
2022-10-17T06:51:29.032Z,15.50
2022-10-17T06:54:02.074Z,16.00
2022-10-17T06:56:34.630Z,16.50
2022-10-17T06:59:07.127Z,17.20
2022-10-17T07:01:43.088Z,17.90
2022-10-17T07:04:21.290Z,18.70
2022-10-17T07:06:56.417Z,19.40
2022-10-17T07:09:29.908Z,19.80
2022-10-17T07:12:03.474Z,20.40
2022-10-17T07:14:41.340Z,20.90
2022-10-17T07:17:13.750Z,21.40
2022-10-17T07:19:46.455Z,21.80
2022-10-17T07:22:19.556Z,22.00
2022-10-17T07:24:51.699Z,22.20
2022-10-17T07:27:23.719Z,22.40
2022-10-17T07:29:56.788Z,22.40
2022-10-17T07:32:29.169Z,22.40
2022-10-17T07:35:01.410Z,22.50
2022-10-17T07:37:33.787Z,22.40
2022-10-17T07:40:08.164Z,21.90
2022-10-17T07:42:44.155Z,21.30
2022-10-17T07:45:16.247Z,20.70
2022-10-17T07:47:50.750Z,20.10
2022-10-17T07:50:26.674Z,19.90
2022-10-17T07:53:06.243Z,20.10
2022-10-17T07:55:39.921Z,20.40
2022-10-17T08:01:15.022Z,21.00
2022-10-17T08:03:58.296Z,21.20
2022-10-17T08:06:35.291Z,21.20
2022-10-17T08:09:08.891Z,21.40
2022-10-17T08:11:43.894Z,21.60
2022-10-17T08:14:16.891Z,21.60
2022-10-17T08:16:49.364Z,21.40
2022-10-17T08:19:21.799Z,21.40
2022-10-17T08:21:56.060Z,21.60
2022-10-17T08:24:29.535Z,21.70
2022-10-17T08:27:02.187Z,21.60
2022-10-17T08:29:40.957Z,21.50
2022-10-17T08:32:21.333Z,21.40
2022-10-17T08:35:06.625Z,21.20
2022-10-17T08:37:41.874Z,21.00
2022-10-17T08:40:26.991Z,20.90
2022-10-17T08:43:14.082Z,20.80
2022-10-17T08:46:05.719Z,20.80
2022-10-17T08:48:46.707Z,20.70
2022-10-17T08:51:24.557Z,20.70
2022-10-17T08:54:50.652Z,20.60
2022-10-17T08:57:22.929Z,20.50
2022-10-17T08:59:55.289Z,20.50
2022-10-17T09:02:43.518Z,20.40
2022-10-17T09:05:44.445Z,20.40
2022-10-17T09:09:13.779Z,20.50
2022-10-17T09:12:29.830Z,20.50
2022-10-17T09:15:44.603Z,20.50
2022-10-17T09:18:36.435Z,20.60
2022-10-17T09:21:18.335Z,20.60
2022-10-17T09:24:09.891Z,20.60
2022-10-17T09:26:54.658Z,20.50
2022-10-17T09:29:32.394Z,20.40
2022-10-17T09:32:26.484Z,20.40
2022-10-17T09:35:23.238Z,20.40
2022-10-17T09:37:56.490Z,20.30
2022-10-17T09:40:34.367Z,20.30
2022-10-17T09:43:11.040Z,20.30
2022-10-17T09:46:06.591Z,20.30
2022-10-17T09:48:53.386Z,20.40
2022-10-17T09:51:45.620Z,20.40
2022-10-17T09:54:24.170Z,20.40
2022-10-17T09:57:09.948Z,20.50
2022-10-17T09:59:47.484Z,20.40
2022-10-17T10:02:33.559Z,20.50
2022-10-17T10:05:20.173Z,20.60
2022-10-17T10:08:13.285Z,20.60
2022-10-17T10:10:59.013Z,20.80
2022-10-17T10:13:35.300Z,20.90
2022-10-17T10:16:18.980Z,21.10
2022-10-17T10:18:54.362Z,21.10
2022-10-17T10:21:27.726Z,21.20
2022-10-17T10:23:59.717Z,21.20
2022-10-17T10:26:46.618Z,21.30
2022-10-17T10:29:51.332Z,21.40
2022-10-17T10:32:29.742Z,21.60
2022-10-17T10:35:25.061Z,21.70
2022-10-17T10:38:15.893Z,22.00
2022-10-17T10:40:56.948Z,22.20
2022-10-17T10:43:52.166Z,22.40
2022-10-17T10:46:30.489Z,22.60
2022-10-17T10:49:03.337Z,22.80
2022-10-17T10:51:49.631Z,22.90
2022-10-17T10:54:40.524Z,23.10
2022-10-17T10:57:25.696Z,23.20
2022-10-17T11:00:12.935Z,23.30
2022-10-17T11:03:02.033Z,23.50
2022-10-17T11:05:55.907Z,23.70
2022-10-17T11:08:52.524Z,23.80
2022-10-17T11:11:53.926Z,24.00
2022-10-17T11:14:49.908Z,24.10
2022-10-17T11:17:35.460Z,24.30
2022-10-17T11:20:23.334Z,24.40
2022-10-17T11:23:41.844Z,24.50
2022-10-17T11:26:33.549Z,24.70
2022-10-17T11:29:13.996Z,24.80
2022-10-17T11:31:54.024Z,24.90
2022-10-17T11:34:32.968Z,25.00
2022-10-17T11:37:48.504Z,25.20
2022-10-17T11:40:53.615Z,25.40
2022-10-17T11:43:44.581Z,25.50
2022-10-17T11:46:39.273Z,25.60
2022-10-17T11:52:54.925Z,25.80
2022-10-17T11:55:43.699Z,25.90
2022-10-17T11:58:57.690Z,25.90
2022-10-17T12:02:17.226Z,25.90
2022-10-17T12:05:27.660Z,26.00
2022-10-17T12:08:50.968Z,26.00
2022-10-17T12:11:56.648Z,26.10
2022-10-17T12:14:37.122Z,26.30
2022-10-17T12:17:39.162Z,26.50
2022-10-17T12:20:35.403Z,26.60
2022-10-17T12:23:12.935Z,26.70
2022-10-17T12:25:58.286Z,26.70
2022-10-17T12:28:37.849Z,26.70
2022-10-17T12:31:18.998Z,26.80
2022-10-17T12:33:57.618Z,26.90
2022-10-17T12:36:39.551Z,26.80
2022-10-17T12:39:18.104Z,26.90
2022-10-17T12:42:36.511Z,27.00
2022-10-17T12:45:49.345Z,27.10
2022-10-17T12:48:46.818Z,27.30
2022-10-17T12:52:13.640Z,27.30
2022-10-17T12:55:13.112Z,27.20
2022-10-17T12:57:58.157Z,27.20
2022-10-17T13:01:11.707Z,27.20
2022-10-17T13:03:53.456Z,27.00
2022-10-17T13:06:39.592Z,26.70
2022-10-17T13:09:27.589Z,26.50
2022-10-17T13:12:11.875Z,26.20
2022-10-17T13:14:54.891Z,26.10
2022-10-17T13:17:30.926Z,26.00
2022-10-17T13:20:30.409Z,25.90
2022-10-17T13:23:07.074Z,25.90
2022-10-17T13:26:07.029Z,25.90
2022-10-17T13:29:07.411Z,25.90
2022-10-17T13:31:44.863Z,25.90
2022-10-17T13:34:28.429Z,25.90
2022-10-17T13:37:11.303Z,25.90
2022-10-17T13:40:00.368Z,25.90
2022-10-17T13:42:47.993Z,25.90
2022-10-17T13:45:29.434Z,25.90
2022-10-17T13:48:08.979Z,26.00
2022-10-17T13:50:53.834Z,25.90
2022-10-17T13:53:37.823Z,25.80
2022-10-17T13:56:29.679Z,25.70
2022-10-17T13:59:23.980Z,25.70
2022-10-17T14:02:15.552Z,25.70
2022-10-17T14:05:23.306Z,25.70
2022-10-17T14:08:12.962Z,25.60
2022-10-17T14:10:48.000Z,25.60
2022-10-17T14:13:26.224Z,25.50
2022-10-17T14:16:06.698Z,25.40
2022-10-17T14:18:44.452Z,25.40
2022-10-17T14:21:43.281Z,25.40
2022-10-17T14:24:28.556Z,25.40
2022-10-17T14:27:02.630Z,25.40
2022-10-17T14:30:01.076Z,25.40
2022-10-17T14:32:38.739Z,25.50
2022-10-17T14:35:37.312Z,25.60
2022-10-17T14:38:16.336Z,25.50
2022-10-17T14:41:37.308Z,25.50
2022-10-17T14:44:03.882Z,25.50
2022-10-17T14:46:49.753Z,25.40
2022-10-17T14:49:40.618Z,25.40
2022-10-17T14:52:18.309Z,25.30
2022-10-17T14:54:58.074Z,25.30
2022-10-17T14:57:48.126Z,25.30
2022-10-17T15:00:24.127Z,25.20
2022-10-17T15:03:03.401Z,25.20
2022-10-17T15:05:40.140Z,25.30
2022-10-17T15:08:18.815Z,25.30
2022-10-17T15:10:53.869Z,25.30
2022-10-17T15:13:35.010Z,25.30
2022-10-17T15:16:34.985Z,25.40
2022-10-17T15:19:10.227Z,25.40
2022-10-17T15:21:47.470Z,25.40
2022-10-17T15:24:20.989Z,25.40
2022-10-17T15:29:30.852Z,25.30
2022-10-17T15:32:02.914Z,25.20
2022-10-17T15:34:35.022Z,25.10
2022-10-17T15:37:29.002Z,25.00
2022-10-17T15:40:04.556Z,24.80
2022-10-17T15:42:37.544Z,24.70
2022-10-17T15:45:12.123Z,24.50
2022-10-17T15:48:10.915Z,24.30
2022-10-17T15:50:49.791Z,24.10
2022-10-17T15:53:22.392Z,23.90
2022-10-17T15:55:55.224Z,23.70
2022-10-17T15:58:34.185Z,23.60
2022-10-17T16:01:21.626Z,23.40
2022-10-17T16:03:56.542Z,23.40
2022-10-17T16:06:29.163Z,23.20
2022-10-17T16:09:01.361Z,23.10
2022-10-17T16:11:39.673Z,22.90
2022-10-17T16:14:18.232Z,22.80
2022-10-17T16:16:50.537Z,22.70
2022-10-17T16:19:23.706Z,22.50
2022-10-17T16:22:04.274Z,22.40
2022-10-17T16:24:41.052Z,22.30
2022-10-17T16:27:13.028Z,22.20
2022-10-17T16:29:45.278Z,22.10
2022-10-17T16:32:17.321Z,22.00
2022-10-17T16:34:49.746Z,21.90
2022-10-17T16:37:21.832Z,21.70
2022-10-17T16:39:54.006Z,21.60
2022-10-17T16:42:26.117Z,21.50
2022-10-17T16:44:58.351Z,21.40
2022-10-17T16:47:30.727Z,21.30
2022-10-17T16:50:03.001Z,21.20
2022-10-17T16:52:35.367Z,21.00
2022-10-17T16:55:09.086Z,20.80
2022-10-17T17:00:17.461Z,20.60
2022-10-17T17:02:49.736Z,20.40
2022-10-17T17:05:21.873Z,20.30
2022-10-17T17:07:55.824Z,20.20
2022-10-17T17:10:28.022Z,20.10
2022-10-17T17:13:02.192Z,20.00
2022-10-17T17:18:35.614Z,19.80
2022-10-17T17:21:36.986Z,19.70
2022-10-17T17:24:13.725Z,19.60
2022-10-17T17:26:54.502Z,19.50
2022-10-17T17:29:31.987Z,19.40
2022-10-17T17:32:04.739Z,19.40
2022-10-17T17:34:38.073Z,19.30
2022-10-17T17:37:12.906Z,19.20
2022-10-17T17:39:46.787Z,19.20
2022-10-17T17:42:19.475Z,19.10
2022-10-17T17:44:52.373Z,19.00
2022-10-17T17:47:28.846Z,19.00
2022-10-17T17:50:03.747Z,18.90
2022-10-17T17:52:36.678Z,18.80
2022-10-17T17:55:28.625Z,18.80
2022-10-17T17:58:05.802Z,18.70
2022-10-17T18:00:42.477Z,18.60
2022-10-17T18:03:14.651Z,18.60
2022-10-17T18:05:46.678Z,18.40
2022-10-17T18:08:21.585Z,18.40
2022-10-17T18:10:59.769Z,18.30
2022-10-17T18:13:32.448Z,18.30
2022-10-17T18:16:13.358Z,18.30
2022-10-17T18:18:48.754Z,18.30
2022-10-17T18:21:21.225Z,18.20
2022-10-17T18:23:53.598Z,18.20
2022-10-17T18:26:45.543Z,18.10
2022-10-17T18:29:17.820Z,18.10
2022-10-17T18:31:50.511Z,18.00
2022-10-17T18:34:22.608Z,18.00
2022-10-17T18:36:55.256Z,18.00
2022-10-17T18:39:27.463Z,17.90
2022-10-17T18:41:59.557Z,17.90
2022-10-17T18:44:31.846Z,17.80
2022-10-17T18:47:04.571Z,17.80
2022-10-17T18:49:37.223Z,17.70
2022-10-17T18:52:09.429Z,17.70
2022-10-17T18:54:42.363Z,17.70
2022-10-17T18:57:14.879Z,17.60
2022-10-17T18:59:47.321Z,17.60
2022-10-17T19:02:19.439Z,17.50
2022-10-17T19:04:51.782Z,17.40
2022-10-17T19:07:24.286Z,17.40
2022-10-17T19:09:56.707Z,17.40
2022-10-17T19:12:29.247Z,17.30
2022-10-17T19:15:05.589Z,17.30
2022-10-17T19:17:39.177Z,17.30
2022-10-17T19:20:11.614Z,17.20
2022-10-17T19:22:44.032Z,17.30
2022-10-17T19:25:16.247Z,17.20
2022-10-17T19:27:49.047Z,17.10
2022-10-17T19:30:22.172Z,17.10
2022-10-17T19:32:54.553Z,17.00
2022-10-17T19:35:26.533Z,17.00
2022-10-17T19:37:59.379Z,16.90
2022-10-17T19:40:32.603Z,16.90
2022-10-17T19:43:10.913Z,16.80
2022-10-17T19:45:42.993Z,16.80
2022-10-17T19:48:15.707Z,16.80
2022-10-17T19:50:50.168Z,16.80
2022-10-17T19:53:27.895Z,16.70
2022-10-17T19:56:01.452Z,16.70
2022-10-17T19:58:37.121Z,16.70
2022-10-17T20:01:20.479Z,16.70
2022-10-17T20:03:55.902Z,16.60
2022-10-17T20:06:28.692Z,16.60
2022-10-17T20:09:01.422Z,16.50
2022-10-17T20:11:35.208Z,16.50
2022-10-17T20:14:07.877Z,16.50
2022-10-17T20:16:40.308Z,16.40
2022-10-17T20:19:13.628Z,16.40
2022-10-17T20:21:45.893Z,16.30
2022-10-17T20:24:18.962Z,16.30
2022-10-17T20:26:51.488Z,16.30
2022-10-17T20:29:24.150Z,16.20
2022-10-17T20:31:59.505Z,16.20
2022-10-17T20:34:35.370Z,16.20
2022-10-17T20:37:07.527Z,16.10
2022-10-17T20:39:39.613Z,16.10
2022-10-17T20:42:13.083Z,16.10
2022-10-17T20:47:33.128Z,16.10
2022-10-17T20:50:10.385Z,16.10
2022-10-17T20:52:48.315Z,16.10
2022-10-17T20:55:20.498Z,16.00
2022-10-17T20:57:55.847Z,16.10
2022-10-17T21:00:28.309Z,16.00
2022-10-17T21:03:00.425Z,16.00
2022-10-17T21:05:32.532Z,16.00
2022-10-17T21:08:11.963Z,16.00
2022-10-17T21:10:43.979Z,15.90
2022-10-17T21:13:16.016Z,15.90
2022-10-17T21:15:48.085Z,15.90
2022-10-17T21:18:20.142Z,15.90
2022-10-17T21:20:52.728Z,15.90
2022-10-17T21:23:24.877Z,15.90
2022-10-17T21:25:59.912Z,15.80
2022-10-17T21:28:33.364Z,15.80
2022-10-17T21:31:10.667Z,15.70
2022-10-17T21:33:55.030Z,15.70
2022-10-17T21:36:28.589Z,15.70
2022-10-17T21:39:01.104Z,15.60
2022-10-17T21:41:34.172Z,15.60
2022-10-17T21:44:11.196Z,15.50
2022-10-17T21:46:46.406Z,15.50
2022-10-17T21:49:24.896Z,15.50
2022-10-17T21:51:57.238Z,15.40
2022-10-17T21:54:29.466Z,15.40
2022-10-17T21:57:01.636Z,15.40
2022-10-17T21:59:35.590Z,15.30
2022-10-17T22:02:07.934Z,15.30
2022-10-17T22:04:39.971Z,15.30
2022-10-17T22:07:12.051Z,15.30
2022-10-17T22:09:44.070Z,15.30
2022-10-17T22:12:16.131Z,15.30
2022-10-17T22:14:48.205Z,15.30
2022-10-17T22:17:20.239Z,15.30
2022-10-17T22:19:52.295Z,15.20
2022-10-17T22:22:24.276Z,15.20
2022-10-17T22:24:56.295Z,15.20
2022-10-17T22:27:28.457Z,15.20
2022-10-17T22:30:01.848Z,15.20
2022-10-17T22:32:35.132Z,15.10
2022-10-17T22:35:07.832Z,15.10
2022-10-17T22:37:40.138Z,15.10
2022-10-17T22:40:12.511Z,15.10
2022-10-17T22:42:44.500Z,15.00
2022-10-17T22:45:16.551Z,15.00
2022-10-17T22:47:48.514Z,15.00
2022-10-17T22:50:21.680Z,15.00
2022-10-17T22:52:54.575Z,15.00
2022-10-17T22:55:26.853Z,15.00
2022-10-17T22:57:58.758Z,15.10
2022-10-17T23:00:31.114Z,15.10
2022-10-17T23:03:02.993Z,15.10
2022-10-17T23:05:34.970Z,15.10
2022-10-17T23:08:07.006Z,15.00
2022-10-17T23:10:40.007Z,15.00
2022-10-17T23:13:12.543Z,15.00
2022-10-17T23:15:51.472Z,14.90
2022-10-17T23:18:25.932Z,14.90
2022-10-17T23:20:58.074Z,14.90
2022-10-17T23:23:30.043Z,14.90
2022-10-17T23:26:07.360Z,14.80
2022-10-17T23:28:42.853Z,14.80
2022-10-17T23:31:19.990Z,14.80
2022-10-17T23:33:52.379Z,14.80
2022-10-17T23:36:24.434Z,14.70
2022-10-17T23:38:58.490Z,14.70
2022-10-17T23:41:31.543Z,14.70
2022-10-17T23:44:04.627Z,14.70
2022-10-17T23:46:37.226Z,14.60
2022-10-17T23:49:09.279Z,14.60
2022-10-17T23:51:41.487Z,14.60
2022-10-17T23:54:13.378Z,14.60
2022-10-17T23:56:45.674Z,14.50
2022-10-17T23:59:18.275Z,14.50
